createdAt,value
2017-07-16T00:00:31.158Z,1016.10
2017-07-16T00:01:19.092Z,1016.06
2017-07-16T00:02:07.162Z,1016.09
2017-07-16T00:02:56.261Z,1016.06
2017-07-16T00:03:44.316Z,1016.05
2017-07-16T00:04:32.352Z,1016.08
2017-07-16T00:05:21.299Z,1016.07
2017-07-16T00:06:09.402Z,1016.04
2017-07-16T00:06:57.408Z,1015.99
2017-07-16T00:07:46.553Z,1016.01
2017-07-16T00:08:34.523Z,1015.98
2017-07-16T00:09:22.627Z,1015.97
2017-07-16T00:10:11.641Z,1015.96
2017-07-16T00:10:59.714Z,1015.96
2017-07-16T00:11:47.653Z,1015.95
2017-07-16T00:12:36.685Z,1015.97
2017-07-16T00:13:24.825Z,1015.94
2017-07-16T00:14:12.866Z,1015.93
2017-07-16T00:15:01.865Z,1015.97
2017-07-16T00:15:50.007Z,1015.95
2017-07-16T00:16:37.893Z,1015.98
2017-07-16T00:17:27.136Z,1015.98
2017-07-16T00:18:15.054Z,1015.98
2017-07-16T00:19:03.155Z,1015.98
2017-07-16T00:19:52.251Z,1015.98
2017-07-16T00:20:40.205Z,1016.01
2017-07-16T00:21:28.346Z,1016.02
2017-07-16T00:22:17.252Z,1016.01
2017-07-16T00:23:05.344Z,1016.05
2017-07-16T00:23:53.444Z,1016.00
2017-07-16T00:24:42.358Z,1016.00
2017-07-16T00:25:30.475Z,1015.99
2017-07-16T00:26:18.656Z,1015.98
2017-07-16T00:27:07.635Z,1016.00
2017-07-16T00:27:55.561Z,1016.04
2017-07-16T00:28:43.621Z,1015.96
2017-07-16T00:29:32.752Z,1015.95
2017-07-16T00:30:20.678Z,1016.02
2017-07-16T00:31:09.148Z,1015.99
2017-07-16T00:31:57.953Z,1015.97
2017-07-16T00:32:45.886Z,1015.96
2017-07-16T00:33:33.844Z,1015.97
2017-07-16T00:34:22.941Z,1015.98
2017-07-16T00:35:11.234Z,1015.99
2017-07-16T00:35:58.976Z,1015.98
2017-07-16T00:36:48.165Z,1015.97
2017-07-16T00:37:36.244Z,1015.95
2017-07-16T00:38:24.115Z,1015.94
2017-07-16T00:39:13.206Z,1015.90
2017-07-16T00:40:01.236Z,1015.91
2017-07-16T00:40:49.374Z,1015.89
2017-07-16T00:41:38.403Z,1015.88
2017-07-16T00:42:26.396Z,1015.88
2017-07-16T00:43:14.489Z,1015.85
2017-07-16T00:44:03.449Z,1015.85
2017-07-16T00:44:51.602Z,1015.83
2017-07-16T00:45:39.639Z,1015.82
2017-07-16T00:46:28.610Z,1015.83
2017-07-16T00:47:16.686Z,1015.88
2017-07-16T00:48:05.288Z,1015.82
2017-07-16T00:48:53.754Z,1015.87
2017-07-16T00:49:41.803Z,1015.84
2017-07-16T00:50:29.874Z,1015.87
2017-07-16T00:51:18.920Z,1015.85
2017-07-16T00:52:07.008Z,1015.86
2017-07-16T00:52:55.022Z,1015.85
2017-07-16T00:53:44.005Z,1015.85
2017-07-16T00:54:32.123Z,1015.86
2017-07-16T00:55:20.140Z,1015.90
2017-07-16T00:56:08.194Z,1015.88
2017-07-16T00:56:57.138Z,1015.92
2017-07-16T00:57:45.290Z,1015.94
2017-07-16T00:58:34.292Z,1015.95
2017-07-16T00:59:22.332Z,1015.93
2017-07-16T01:00:10.421Z,1015.89
2017-07-16T01:00:59.434Z,1015.91
2017-07-16T01:01:47.493Z,1015.91
2017-07-16T01:02:35.519Z,1015.91
2017-07-16T01:03:24.622Z,1015.90
2017-07-16T01:04:12.643Z,1015.89
2017-07-16T01:05:00.643Z,1015.86
2017-07-16T01:05:49.735Z,1015.88
2017-07-16T01:06:37.837Z,1015.83
2017-07-16T01:07:25.908Z,1015.81
2017-07-16T01:08:14.836Z,1015.82
2017-07-16T01:09:02.867Z,1015.79
2017-07-16T01:09:50.862Z,1015.79
2017-07-16T01:10:39.920Z,1015.75
2017-07-16T01:11:27.984Z,1015.73
2017-07-16T01:12:15.987Z,1015.71
2017-07-16T01:13:05.610Z,1015.77
2017-07-16T01:13:53.090Z,1015.75
2017-07-16T01:14:41.151Z,1015.74
2017-07-16T01:15:30.215Z,1015.73
2017-07-16T01:16:18.244Z,1015.75
2017-07-16T01:17:06.439Z,1015.76
2017-07-16T01:17:54.343Z,1015.78
2017-07-16T01:18:43.374Z,1015.79
2017-07-16T01:19:31.603Z,1015.83
2017-07-16T01:20:20.474Z,1015.80
2017-07-16T01:21:08.607Z,1015.87
2017-07-16T01:21:56.664Z,1015.85
2017-07-16T01:22:45.594Z,1015.84
2017-07-16T01:23:33.793Z,1015.82
2017-07-16T01:24:21.803Z,1015.83
2017-07-16T01:25:10.758Z,1015.81
2017-07-16T01:25:58.742Z,1015.83
2017-07-16T01:26:46.902Z,1015.78
2017-07-16T01:27:36.237Z,1015.77
2017-07-16T01:28:24.025Z,1015.78
2017-07-16T01:29:11.928Z,1015.79
2017-07-16T01:30:06.093Z,1015.76
2017-07-16T01:30:54.106Z,1015.76
2017-07-16T01:31:43.217Z,1015.77
2017-07-16T01:32:37.137Z,1015.70
2017-07-16T01:33:25.294Z,1015.70
2017-07-16T01:34:13.186Z,1015.72
2017-07-16T01:35:01.333Z,1015.68
2017-07-16T01:35:50.342Z,1015.67
2017-07-16T01:36:38.418Z,1015.66
2017-07-16T01:37:26.450Z,1015.69
2017-07-16T01:38:15.387Z,1015.67
2017-07-16T01:39:03.622Z,1015.67
2017-07-16T01:39:51.544Z,1015.67
2017-07-16T01:40:39.572Z,1015.66
2017-07-16T01:41:28.717Z,1015.65
2017-07-16T01:42:16.753Z,1015.70
2017-07-16T01:43:10.687Z,1015.68
2017-07-16T01:43:59.807Z,1015.69
2017-07-16T01:44:47.942Z,1015.68
2017-07-16T01:45:35.825Z,1015.67
2017-07-16T01:46:23.889Z,1015.68
2017-07-16T01:47:11.918Z,1015.69
2017-07-16T01:48:01.310Z,1015.66
2017-07-16T01:48:49.123Z,1015.69
2017-07-16T01:49:37.155Z,1015.69
2017-07-16T01:50:32.151Z,1015.67
2017-07-16T01:51:26.113Z,1015.65
2017-07-16T01:52:15.239Z,1015.67
2017-07-16T01:53:03.705Z,1015.64
2017-07-16T01:53:52.387Z,1015.59
2017-07-16T01:54:40.357Z,1015.61
2017-07-16T01:55:28.334Z,1015.62
2017-07-16T01:56:23.555Z,1015.57
2017-07-16T01:57:12.522Z,1015.61
2017-07-16T01:58:01.644Z,1015.59
2017-07-16T01:59:01.920Z,1015.56
2017-07-16T01:59:55.567Z,1015.59
2017-07-16T02:00:55.683Z,1015.56
2017-07-16T02:01:50.864Z,1015.59
2017-07-16T02:02:46.096Z,1015.55
2017-07-16T02:03:45.781Z,1015.53
2017-07-16T02:04:40.768Z,1015.57
2017-07-16T02:05:40.785Z,1015.50
2017-07-16T02:06:40.771Z,1015.50
2017-07-16T02:07:40.874Z,1015.51
2017-07-16T02:08:40.981Z,1015.50
2017-07-16T02:09:46.975Z,1015.53
2017-07-16T02:10:42.032Z,1015.54
2017-07-16T02:11:43.086Z,1015.57
2017-07-16T02:12:43.553Z,1015.57
2017-07-16T02:13:38.059Z,1015.57
2017-07-16T02:14:38.065Z,1015.60
2017-07-16T02:15:32.156Z,1015.60
2017-07-16T02:16:32.208Z,1015.58
2017-07-16T02:17:27.231Z,1015.62
2017-07-16T02:18:27.332Z,1015.58
2017-07-16T02:19:27.334Z,1015.60
2017-07-16T02:20:27.451Z,1015.57
2017-07-16T02:21:21.438Z,1015.58
2017-07-16T02:22:21.460Z,1015.58
2017-07-16T02:23:16.528Z,1015.58
2017-07-16T02:24:11.572Z,1015.63
2017-07-16T02:25:12.514Z,1015.57
2017-07-16T02:26:12.624Z,1015.58
2017-07-16T02:27:08.026Z,1015.57
2017-07-16T02:28:08.158Z,1015.59
2017-07-16T02:29:01.687Z,1015.59
2017-07-16T02:30:01.731Z,1015.62
2017-07-16T02:30:56.735Z,1015.60
2017-07-16T02:31:51.907Z,1015.61
2017-07-16T02:32:51.938Z,1015.57
2017-07-16T02:33:51.875Z,1015.53
2017-07-16T02:34:52.960Z,1015.56
2017-07-16T02:35:54.121Z,1015.57
2017-07-16T02:36:48.961Z,1015.62
2017-07-16T02:37:43.323Z,1015.55
2017-07-16T02:38:43.061Z,1015.59
2017-07-16T02:39:38.127Z,1015.59
2017-07-16T02:40:33.116Z,1015.55
2017-07-16T02:41:28.464Z,1015.53
2017-07-16T02:42:16.207Z,1015.58
2017-07-16T02:43:04.811Z,1015.53
2017-07-16T02:43:58.349Z,1015.54
2017-07-16T02:44:47.377Z,1015.58
2017-07-16T02:45:35.363Z,1015.56
2017-07-16T02:46:24.483Z,1015.55
2017-07-16T02:47:12.559Z,1015.59
2017-07-16T02:48:07.049Z,1015.56
2017-07-16T02:49:06.586Z,1015.50
2017-07-16T02:50:06.659Z,1015.54
2017-07-16T02:51:01.570Z,1015.56
2017-07-16T02:51:50.681Z,1015.54
2017-07-16T02:52:46.232Z,1015.56
2017-07-16T02:53:40.932Z,1015.54
2017-07-16T02:54:34.800Z,1015.56
2017-07-16T02:55:35.825Z,1015.54
2017-07-16T02:56:36.823Z,1015.54
2017-07-16T02:57:32.028Z,1015.51
2017-07-16T02:58:25.907Z,1015.52
2017-07-16T02:59:26.161Z,1015.51
2017-07-16T03:00:21.105Z,1015.48
2017-07-16T03:01:21.059Z,1015.53
2017-07-16T03:02:21.532Z,1015.53
2017-07-16T03:03:21.161Z,1015.49
2017-07-16T03:04:21.121Z,1015.46
2017-07-16T03:05:16.228Z,1015.47
2017-07-16T03:06:11.216Z,1015.44
2017-07-16T03:07:00.255Z,1015.46
2017-07-16T03:07:48.387Z,1015.45
2017-07-16T03:08:36.302Z,1015.46
2017-07-16T03:09:24.433Z,1015.47
2017-07-16T03:10:19.392Z,1015.45
2017-07-16T03:11:14.433Z,1015.51
2017-07-16T03:12:14.622Z,1015.50
2017-07-16T03:13:08.613Z,1015.52
2017-07-16T03:13:57.719Z,1015.48
2017-07-16T03:14:45.887Z,1015.52
2017-07-16T03:15:34.717Z,1015.55
2017-07-16T03:16:29.767Z,1015.55
2017-07-16T03:17:17.989Z,1015.57
2017-07-16T03:18:06.833Z,1015.52
2017-07-16T03:18:55.932Z,1015.57
2017-07-16T03:19:44.955Z,1015.53
2017-07-16T03:20:33.973Z,1015.53
2017-07-16T03:21:22.051Z,1015.55
2017-07-16T03:22:10.126Z,1015.52
2017-07-16T03:22:58.144Z,1015.56
2017-07-16T03:23:47.178Z,1015.56
2017-07-16T03:24:35.359Z,1015.54
2017-07-16T03:25:24.178Z,1015.63
2017-07-16T03:26:12.317Z,1015.62
2017-07-16T03:27:00.348Z,1015.55
2017-07-16T03:27:49.405Z,1015.55
2017-07-16T03:28:37.445Z,1015.54
2017-07-16T03:29:25.431Z,1015.56
2017-07-16T03:30:25.553Z,1015.54
2017-07-16T03:31:13.565Z,1015.51
2017-07-16T03:32:07.776Z,1015.54
2017-07-16T03:33:02.691Z,1015.55
2017-07-16T03:34:02.575Z,1015.49
2017-07-16T03:35:02.745Z,1015.55
2017-07-16T03:36:02.858Z,1015.52
2017-07-16T03:37:02.888Z,1015.56
2017-07-16T03:38:02.936Z,1015.54
2017-07-16T03:39:08.864Z,1015.58
2017-07-16T03:40:08.873Z,1015.53
2017-07-16T03:41:09.951Z,1015.54
2017-07-16T03:42:11.153Z,1015.57
2017-07-16T03:43:11.120Z,1015.58
2017-07-16T03:43:59.080Z,1015.56
2017-07-16T03:44:53.116Z,1015.64
2017-07-16T03:45:41.163Z,1015.64
2017-07-16T03:46:29.193Z,1015.60
2017-07-16T03:47:17.258Z,1015.63
2017-07-16T03:48:17.382Z,1015.62
2017-07-16T03:49:12.356Z,1015.60
2017-07-16T03:50:12.351Z,1015.64
2017-07-16T03:51:12.358Z,1015.56
2017-07-16T03:52:12.490Z,1015.58
2017-07-16T03:53:12.413Z,1015.56
2017-07-16T03:54:12.523Z,1015.55
2017-07-16T03:55:12.556Z,1015.54
2017-07-16T03:56:12.638Z,1015.54
2017-07-16T03:57:18.621Z,1015.54
2017-07-16T03:58:13.606Z,1015.51
2017-07-16T03:59:13.722Z,1015.55
2017-07-16T04:00:13.691Z,1015.52
2017-07-16T04:01:07.828Z,1015.52
2017-07-16T04:02:07.827Z,1015.56
2017-07-16T04:03:03.106Z,1015.55
2017-07-16T04:03:57.913Z,1015.57
2017-07-16T04:04:51.975Z,1015.58
2017-07-16T04:05:52.941Z,1015.59
2017-07-16T04:06:53.037Z,1015.59
2017-07-16T04:07:47.092Z,1015.60
2017-07-16T04:08:36.092Z,1015.58
2017-07-16T04:09:24.502Z,1015.60
2017-07-16T04:10:12.190Z,1015.63
2017-07-16T04:11:01.261Z,1015.58
2017-07-16T04:11:49.194Z,1015.61
2017-07-16T04:12:38.404Z,1015.61
2017-07-16T04:13:26.445Z,1015.60
2017-07-16T04:14:20.511Z,1015.60
2017-07-16T04:15:15.483Z,1015.60
2017-07-16T04:16:15.479Z,1015.62
2017-07-16T04:17:15.545Z,1015.61
2017-07-16T04:18:15.612Z,1015.61
2017-07-16T04:19:15.559Z,1015.65
2017-07-16T04:20:09.660Z,1015.67
2017-07-16T04:21:03.619Z,1015.69
2017-07-16T04:22:03.738Z,1015.65
2017-07-16T04:23:04.197Z,1015.68
2017-07-16T04:24:04.804Z,1015.69
2017-07-16T04:24:58.887Z,1015.72
2017-07-16T04:25:53.918Z,1015.68
2017-07-16T04:26:54.067Z,1015.68
2017-07-16T04:27:48.004Z,1015.74
2017-07-16T04:28:48.939Z,1015.71
2017-07-16T04:29:49.938Z,1015.72
2017-07-16T04:30:50.006Z,1015.73
2017-07-16T04:31:50.060Z,1015.70
2017-07-16T04:32:44.144Z,1015.70
2017-07-16T04:33:38.113Z,1015.75
2017-07-16T04:34:38.309Z,1015.73
2017-07-16T04:35:38.201Z,1015.70
2017-07-16T04:36:33.280Z,1015.69
2017-07-16T04:37:33.348Z,1015.68
2017-07-16T04:38:28.389Z,1015.70
2017-07-16T04:39:28.458Z,1015.67
2017-07-16T04:40:23.555Z,1015.71
2017-07-16T04:41:17.548Z,1015.72
2017-07-16T04:42:12.455Z,1015.69
2017-07-16T04:43:00.531Z,1015.73
2017-07-16T04:43:54.674Z,1015.72
2017-07-16T04:44:55.710Z,1015.71
2017-07-16T04:45:50.670Z,1015.70
2017-07-16T04:46:50.733Z,1015.72
2017-07-16T04:47:50.856Z,1015.71
2017-07-16T04:48:50.822Z,1015.73
2017-07-16T04:49:56.845Z,1015.74
2017-07-16T04:50:51.908Z,1015.72
2017-07-16T04:51:46.060Z,1015.76
2017-07-16T04:52:41.136Z,1015.75
2017-07-16T04:53:40.978Z,1015.76
2017-07-16T04:54:41.114Z,1015.76
2017-07-16T04:55:35.088Z,1015.77
2017-07-16T04:56:29.092Z,1015.77
2017-07-16T04:57:30.869Z,1015.78
2017-07-16T04:58:19.247Z,1015.80
2017-07-16T04:59:13.274Z,1015.80
2017-07-16T05:00:02.381Z,1015.79
2017-07-16T05:00:56.428Z,1015.81
2017-07-16T05:01:56.314Z,1015.79
2017-07-16T05:02:51.471Z,1015.79
2017-07-16T05:03:46.657Z,1015.82
2017-07-16T05:04:46.718Z,1015.77
2017-07-16T05:05:41.624Z,1015.75
2017-07-16T05:06:36.563Z,1015.78
2017-07-16T05:07:30.548Z,1015.79
2017-07-16T05:08:18.711Z,1015.77
2017-07-16T05:09:06.735Z,1015.79
2017-07-16T05:09:55.745Z,1015.81
2017-07-16T05:10:44.707Z,1015.81
2017-07-16T05:11:38.878Z,1015.81
2017-07-16T05:12:33.927Z,1015.85
2017-07-16T05:13:21.931Z,1015.82
2017-07-16T05:14:10.015Z,1015.83
2017-07-16T05:15:04.281Z,1015.83
2017-07-16T05:15:53.078Z,1015.84
2017-07-16T05:16:47.231Z,1015.84
2017-07-16T05:17:47.159Z,1015.87
2017-07-16T05:18:36.209Z,1015.88
2017-07-16T05:19:30.239Z,1015.91
2017-07-16T05:20:30.305Z,1015.90
2017-07-16T05:21:19.465Z,1015.94
2017-07-16T05:22:14.450Z,1015.95
2017-07-16T05:23:14.435Z,1015.95
2017-07-16T05:24:03.468Z,1015.98
2017-07-16T05:24:57.492Z,1015.98
2017-07-16T05:25:52.609Z,1016.03
2017-07-16T05:26:46.701Z,1015.96
2017-07-16T05:27:40.746Z,1015.99
2017-07-16T05:28:40.681Z,1016.02
2017-07-16T05:29:36.077Z,1016.05
2017-07-16T05:30:30.739Z,1016.04
2017-07-16T05:31:24.820Z,1016.02
2017-07-16T05:32:25.280Z,1016.04
2017-07-16T05:33:19.941Z,1016.04
2017-07-16T05:34:14.941Z,1016.01
2017-07-16T05:35:08.927Z,1016.01
2017-07-16T05:36:08.990Z,1016.09
2017-07-16T05:37:04.121Z,1016.05
2017-07-16T05:37:52.113Z,1016.05
2017-07-16T05:38:46.151Z,1016.03
2017-07-16T05:39:40.554Z,1016.09
2017-07-16T05:40:34.303Z,1016.09
2017-07-16T05:41:28.229Z,1016.02
2017-07-16T05:42:29.677Z,1016.12
2017-07-16T05:43:17.427Z,1016.06
2017-07-16T05:44:06.458Z,1016.11
2017-07-16T05:45:00.425Z,1016.11
2017-07-16T05:46:00.587Z,1016.11
2017-07-16T05:47:00.856Z,1016.09
2017-07-16T05:48:00.548Z,1016.07
2017-07-16T05:48:54.612Z,1016.06
2017-07-16T05:49:54.709Z,1016.11
2017-07-16T05:50:49.563Z,1016.13
2017-07-16T05:51:43.686Z,1016.12
2017-07-16T05:52:43.778Z,1016.13
2017-07-16T05:53:43.745Z,1016.13
2017-07-16T05:54:43.898Z,1016.10
2017-07-16T05:55:37.873Z,1016.14
2017-07-16T05:56:31.963Z,1016.09
2017-07-16T05:57:19.921Z,1016.10
2017-07-16T05:58:21.010Z,1016.08
2017-07-16T05:59:21.154Z,1016.11
2017-07-16T06:00:16.063Z,1016.10
2017-07-16T06:01:05.188Z,1016.14
2017-07-16T06:01:59.324Z,1016.16
2017-07-16T06:02:53.275Z,1016.16
2017-07-16T06:03:42.286Z,1016.18
2017-07-16T06:04:30.275Z,1016.17
2017-07-16T06:05:19.414Z,1016.13
2017-07-16T06:06:07.562Z,1016.15
2017-07-16T06:06:56.481Z,1016.11
2017-07-16T06:07:51.465Z,1016.11
2017-07-16T06:08:45.561Z,1016.11
2017-07-16T06:09:40.651Z,1016.11
2017-07-16T06:10:40.711Z,1016.13
2017-07-16T06:11:34.939Z,1016.13
2017-07-16T06:12:30.193Z,1016.16
2017-07-16T06:13:18.797Z,1016.13
2017-07-16T06:14:12.829Z,1016.09
2017-07-16T06:15:12.890Z,1016.16
2017-07-16T06:16:00.949Z,1016.11
2017-07-16T06:16:56.080Z,1016.16
2017-07-16T06:17:56.982Z,1016.18
2017-07-16T06:18:52.001Z,1016.25
2017-07-16T06:19:41.215Z,1016.23
2017-07-16T06:20:30.058Z,1016.24
2017-07-16T06:21:25.106Z,1016.23
2017-07-16T06:22:19.295Z,1016.22
2017-07-16T06:23:13.322Z,1016.26
2017-07-16T06:24:02.226Z,1016.25
2017-07-16T06:25:02.403Z,1016.26
2017-07-16T06:25:56.480Z,1016.26
2017-07-16T06:26:51.336Z,1016.26
2017-07-16T06:27:51.410Z,1016.26
2017-07-16T06:28:45.433Z,1016.29
2017-07-16T06:29:45.551Z,1016.27
2017-07-16T06:30:39.626Z,1016.31
2017-07-16T06:31:27.606Z,1016.31
2017-07-16T06:32:15.688Z,1016.30
2017-07-16T06:33:04.799Z,1016.31
2017-07-16T06:33:53.764Z,1016.31
2017-07-16T06:34:42.889Z,1016.35
2017-07-16T06:35:30.868Z,1016.29
2017-07-16T06:36:19.862Z,1016.36
2017-07-16T06:37:08.952Z,1016.37
2017-07-16T06:37:58.002Z,1016.32
2017-07-16T06:38:46.158Z,1016.32
2017-07-16T06:39:40.126Z,1016.30
2017-07-16T06:40:34.192Z,1016.29
2017-07-16T06:41:34.173Z,1016.30
2017-07-16T06:42:23.317Z,1016.35
2017-07-16T06:43:12.307Z,1016.35
2017-07-16T06:44:06.337Z,1016.29
2017-07-16T06:45:01.452Z,1016.33
2017-07-16T06:45:55.373Z,1016.39
2017-07-16T06:46:49.482Z,1016.36
2017-07-16T06:47:43.514Z,1016.39
2017-07-16T06:48:43.487Z,1016.36
2017-07-16T06:49:37.587Z,1016.34
2017-07-16T06:50:37.838Z,1016.39
2017-07-16T06:51:31.789Z,1016.39
2017-07-16T06:52:26.071Z,1016.41
2017-07-16T06:53:13.978Z,1016.40
2017-07-16T06:54:02.867Z,1016.40
2017-07-16T06:54:51.128Z,1016.35
2017-07-16T06:55:46.028Z,1016.38
2017-07-16T06:56:45.924Z,1016.35
2017-07-16T06:57:41.051Z,1016.35
2017-07-16T06:58:41.260Z,1016.32
2017-07-16T06:59:36.112Z,1016.30
2017-07-16T07:00:31.220Z,1016.35
2017-07-16T07:01:31.098Z,1016.33
2017-07-16T07:02:26.573Z,1016.30
2017-07-16T07:03:20.245Z,1016.29
2017-07-16T07:04:08.232Z,1016.31
2017-07-16T07:04:56.667Z,1016.36
2017-07-16T07:05:45.376Z,1016.33
2017-07-16T07:06:39.364Z,1016.32
2017-07-16T07:07:33.857Z,1016.37
2017-07-16T07:08:28.885Z,1016.38
2017-07-16T07:09:22.545Z,1016.44
2017-07-16T07:10:22.603Z,1016.42
2017-07-16T07:11:12.185Z,1016.49
2017-07-16T07:12:06.681Z,1016.50
2017-07-16T07:13:00.754Z,1016.56
2017-07-16T07:13:55.761Z,1016.53
2017-07-16T07:14:55.815Z,1016.55
2017-07-16T07:15:50.972Z,1016.59
2017-07-16T07:16:45.107Z,1016.58
2017-07-16T07:17:38.905Z,1016.65
2017-07-16T07:18:33.417Z,1016.57
2017-07-16T07:19:28.020Z,1016.56
2017-07-16T07:20:23.157Z,1016.52
2017-07-16T07:21:17.112Z,1016.53
2017-07-16T07:22:18.189Z,1016.53
2017-07-16T07:23:13.278Z,1016.50
2017-07-16T07:24:08.280Z,1016.43
2017-07-16T07:25:02.362Z,1016.45
2017-07-16T07:26:03.302Z,1016.39
2017-07-16T07:27:04.438Z,1016.47
2017-07-16T07:27:58.461Z,1016.37
2017-07-16T07:28:52.546Z,1016.45
2017-07-16T07:29:47.513Z,1016.44
2017-07-16T07:30:41.975Z,1016.45
2017-07-16T07:31:30.882Z,1016.41
2017-07-16T07:32:18.607Z,1016.39
2017-07-16T07:33:12.872Z,1016.42
2017-07-16T07:34:06.712Z,1016.46
2017-07-16T07:35:01.859Z,1016.40
2017-07-16T07:35:56.767Z,1016.43
2017-07-16T07:36:46.049Z,1016.41
2017-07-16T07:37:39.909Z,1016.45
2017-07-16T07:38:40.447Z,1016.42
2017-07-16T07:39:40.124Z,1016.47
2017-07-16T07:40:35.172Z,1016.45
2017-07-16T07:41:29.243Z,1016.48
2017-07-16T07:42:24.235Z,1016.45
2017-07-16T07:43:18.260Z,1016.46
2017-07-16T07:44:13.353Z,1016.47
2017-07-16T07:45:07.400Z,1016.52
2017-07-16T07:46:01.393Z,1016.48
2017-07-16T07:47:01.602Z,1016.48
2017-07-16T07:47:50.810Z,1016.47
2017-07-16T07:48:44.430Z,1016.46
2017-07-16T07:49:39.598Z,1016.42
2017-07-16T07:50:39.521Z,1016.47
2017-07-16T07:51:34.625Z,1016.49
2017-07-16T07:52:22.588Z,1016.50
2017-07-16T07:53:23.677Z,1016.48
2017-07-16T07:54:17.772Z,1016.44
2017-07-16T07:55:05.940Z,1016.45
2017-07-16T07:55:55.118Z,1016.49
2017-07-16T07:56:49.987Z,1016.44
2017-07-16T07:57:50.044Z,1016.52
2017-07-16T07:58:45.307Z,1016.52
2017-07-16T07:59:40.092Z,1016.53
2017-07-16T08:00:40.106Z,1016.47
2017-07-16T08:01:34.101Z,1016.44
2017-07-16T08:02:28.650Z,1016.48
2017-07-16T08:03:22.260Z,1016.43
2017-07-16T08:04:23.355Z,1016.43
2017-07-16T08:05:23.341Z,1016.44
2017-07-16T08:06:17.401Z,1016.52
2017-07-16T08:07:12.461Z,1016.47
2017-07-16T08:08:07.519Z,1016.49
2017-07-16T08:09:01.423Z,1016.48
2017-07-16T08:09:56.566Z,1016.49
2017-07-16T08:10:56.786Z,1016.49
2017-07-16T08:11:50.627Z,1016.42
2017-07-16T08:12:50.633Z,1016.43
2017-07-16T08:13:39.699Z,1016.36
2017-07-16T08:14:33.841Z,1016.36
2017-07-16T08:15:21.729Z,1016.44
2017-07-16T08:16:16.883Z,1016.39
2017-07-16T08:17:11.000Z,1016.40
2017-07-16T08:18:11.939Z,1016.33
2017-07-16T08:19:06.104Z,1016.37
2017-07-16T08:20:01.369Z,1016.35
2017-07-16T08:20:55.087Z,1016.40
2017-07-16T08:21:50.164Z,1016.36
2017-07-16T08:22:44.136Z,1016.34
2017-07-16T08:23:33.324Z,1016.30
2017-07-16T08:24:28.303Z,1016.32
2017-07-16T08:25:23.396Z,1016.33
2017-07-16T08:26:24.393Z,1016.35
2017-07-16T08:27:25.441Z,1016.41
2017-07-16T08:28:19.450Z,1016.39
2017-07-16T08:29:19.533Z,1016.39
2017-07-16T08:30:08.625Z,1016.40
2017-07-16T08:31:02.911Z,1016.43
2017-07-16T08:31:56.665Z,1016.46
2017-07-16T08:32:56.676Z,1016.42
2017-07-16T08:33:50.745Z,1016.51
2017-07-16T08:34:44.752Z,1016.47
2017-07-16T08:35:34.028Z,1016.47
2017-07-16T08:36:28.955Z,1016.45
2017-07-16T08:37:22.989Z,1016.45
2017-07-16T08:38:16.949Z,1016.37
2017-07-16T08:39:11.162Z,1016.40
2017-07-16T08:40:06.076Z,1016.34
2017-07-16T08:41:01.108Z,1016.33
2017-07-16T08:41:55.181Z,1016.30
2017-07-16T08:42:55.166Z,1016.37
2017-07-16T08:43:50.298Z,1016.29
2017-07-16T08:44:45.241Z,1016.32
2017-07-16T08:45:34.336Z,1016.27
2017-07-16T08:46:34.334Z,1016.39
2017-07-16T08:47:34.948Z,1016.36
2017-07-16T08:48:34.545Z,1016.35
2017-07-16T08:49:34.477Z,1016.33
2017-07-16T08:50:34.552Z,1016.32
2017-07-16T08:51:34.617Z,1016.34
2017-07-16T08:52:35.065Z,1016.42
2017-07-16T08:53:34.586Z,1016.42
2017-07-16T08:54:34.642Z,1016.45
2017-07-16T08:55:34.764Z,1016.48
2017-07-16T08:56:22.825Z,1016.52
2017-07-16T08:57:22.834Z,1016.52
2017-07-16T08:58:11.947Z,1016.58
2017-07-16T08:59:12.099Z,1016.61
2017-07-16T09:00:00.990Z,1016.65
2017-07-16T09:00:55.105Z,1016.61
2017-07-16T09:02:01.042Z,1016.52
2017-07-16T09:02:55.352Z,1016.55
2017-07-16T09:03:55.165Z,1016.52
2017-07-16T09:04:55.266Z,1016.55
2017-07-16T09:05:50.210Z,1016.52
2017-07-16T09:06:50.362Z,1016.48
2017-07-16T09:07:44.303Z,1016.56
2017-07-16T09:08:38.436Z,1016.54
2017-07-16T09:09:32.393Z,1016.57
2017-07-16T09:10:27.903Z,1016.61
2017-07-16T09:11:21.858Z,1016.60
2017-07-16T09:12:21.666Z,1016.56
2017-07-16T09:13:21.622Z,1016.58
2017-07-16T09:14:22.082Z,1016.60
2017-07-16T09:15:21.693Z,1016.56
2017-07-16T09:16:15.978Z,1016.56
2017-07-16T09:17:04.880Z,1016.58
2017-07-16T09:17:52.826Z,1016.51
2017-07-16T09:18:41.854Z,1016.51
2017-07-16T09:19:36.931Z,1016.48
2017-07-16T09:20:37.310Z,1016.51
2017-07-16T09:21:31.132Z,1016.50
2017-07-16T09:22:20.282Z,1016.55
2017-07-16T09:23:20.296Z,1016.53
2017-07-16T09:24:15.570Z,1016.55
2017-07-16T09:25:09.372Z,1016.51
2017-07-16T09:26:03.278Z,1016.54
2017-07-16T09:26:58.510Z,1016.52
2017-07-16T09:27:53.377Z,1016.51
2017-07-16T09:28:53.438Z,1016.48
2017-07-16T09:29:47.493Z,1016.48
2017-07-16T09:30:41.519Z,1016.52
2017-07-16T09:31:35.624Z,1016.56
2017-07-16T09:32:24.709Z,1016.55
2017-07-16T09:33:19.687Z,1016.60
2017-07-16T09:34:19.663Z,1016.62
2017-07-16T09:35:14.775Z,1016.58
2017-07-16T09:36:09.774Z,1016.57
2017-07-16T09:37:09.785Z,1016.55
2017-07-16T09:38:04.278Z,1016.51
2017-07-16T09:38:52.967Z,1016.52
2017-07-16T09:39:41.001Z,1016.51
2017-07-16T09:40:35.089Z,1016.52
2017-07-16T09:41:24.077Z,1016.54
2017-07-16T09:42:19.133Z,1016.52
2017-07-16T09:43:19.515Z,1016.57
2017-07-16T09:44:14.220Z,1016.50
2017-07-16T09:45:08.258Z,1016.54
2017-07-16T09:46:08.456Z,1016.55
2017-07-16T09:47:08.482Z,1016.43
2017-07-16T09:48:02.410Z,1016.53
2017-07-16T09:48:51.491Z,1016.59
2017-07-16T09:49:39.524Z,1016.58
2017-07-16T09:50:39.588Z,1016.56
2017-07-16T09:51:33.616Z,1016.56
2017-07-16T09:52:27.659Z,1016.60
2017-07-16T09:53:22.672Z,1016.66
2017-07-16T09:54:23.955Z,1016.57
2017-07-16T09:55:23.809Z,1016.61
2017-07-16T09:56:11.900Z,1016.59
2017-07-16T09:57:05.847Z,1016.56
2017-07-16T09:58:00.033Z,1016.62
2017-07-16T09:58:54.351Z,1016.61
2017-07-16T09:59:49.065Z,1016.67
2017-07-16T10:00:38.135Z,1016.65
2017-07-16T10:01:38.154Z,1016.73
2017-07-16T10:02:32.743Z,1016.71
2017-07-16T10:03:26.702Z,1016.77
2017-07-16T10:04:14.373Z,1016.74
2017-07-16T10:05:03.427Z,1016.65
2017-07-16T10:05:57.445Z,1016.60
2017-07-16T10:06:51.704Z,1016.77
2017-07-16T10:07:45.860Z,1016.74
2017-07-16T10:08:40.685Z,1016.70
2017-07-16T10:09:34.746Z,1016.80
2017-07-16T10:10:29.829Z,1016.73
2017-07-16T10:11:18.830Z,1016.69
2017-07-16T10:12:18.892Z,1016.69
2017-07-16T10:13:18.974Z,1016.57
2017-07-16T10:14:07.150Z,1016.60
2017-07-16T10:15:01.392Z,1016.54
2017-07-16T10:15:49.264Z,1016.57
2017-07-16T10:16:50.270Z,1016.47
2017-07-16T10:17:45.588Z,1016.57
2017-07-16T10:18:39.491Z,1016.65
2017-07-16T10:19:28.587Z,1016.68
2017-07-16T10:20:23.885Z,1016.57
2017-07-16T10:21:17.990Z,1016.63
2017-07-16T10:22:11.964Z,1016.61
2017-07-16T10:23:06.737Z,1016.60
2017-07-16T10:24:01.157Z,1016.66
2017-07-16T10:24:54.837Z,1016.54
2017-07-16T10:25:56.303Z,1016.53
2017-07-16T10:26:45.424Z,1016.61
2017-07-16T10:27:40.821Z,1016.63
2017-07-16T10:28:34.156Z,1016.68
2017-07-16T10:29:23.585Z,1016.79
2017-07-16T10:30:18.741Z,1016.75
2017-07-16T10:31:06.670Z,1016.62
2017-07-16T10:32:00.516Z,1016.55
2017-07-16T10:32:55.574Z,1016.58
2017-07-16T10:33:55.739Z,1016.49
2017-07-16T10:34:56.150Z,1016.43
2017-07-16T10:35:56.811Z,1016.56
2017-07-16T10:36:51.141Z,1016.56
2017-07-16T10:37:45.908Z,1016.59
2017-07-16T10:38:40.029Z,1016.58
2017-07-16T10:39:34.189Z,1016.63
2017-07-16T10:40:23.160Z,1016.54
2017-07-16T10:41:17.240Z,1016.59
2017-07-16T10:42:11.527Z,1016.52
2017-07-16T10:43:06.267Z,1016.57
2017-07-16T10:44:01.436Z,1016.56
2017-07-16T10:44:55.807Z,1016.57
2017-07-16T10:45:50.777Z,1016.59
2017-07-16T10:46:44.652Z,1016.59
2017-07-16T10:47:40.136Z,1016.50
2017-07-16T10:48:35.183Z,1016.37
2017-07-16T10:49:29.267Z,1016.29